Time;durP1;ratioP1;P1;durP2;ratioP2;P2;SDS_P1;SDS_P2;PMS_P1;PMS_P2;Temp;Humidity;BMP_temperature;BMP_pressure;BME280_temperature;BME280_humidity;BME280_pressure;Samples;Min_cycle;Max_cycle;Signal;HPM_P1;HPM_P2
2023/07/17 00:01:48;;;;;;;3.28;2.63;;;17.90;99.90;;;;;;5022462;28;20739;-65
2023/07/17 00:04:15;;;;;;;4.60;2.20;;;17.90;99.90;;;;;;5015641;28;20211;-65
2023/07/17 00:06:41;;;;;;;2.75;2.08;;;17.90;99.90;;;;;;4996212;28;20675;-65
2023/07/17 00:09:08;;;;;;;3.10;1.98;;;17.90;99.90;;;;;;5025541;28;20204;-65
2023/07/17 00:11:35;;;;;;;4.22;2.42;;;17.90;99.90;;;;;;5011060;28;20721;-65
2023/07/17 00:14:02;;;;;;;5.00;2.35;;;17.80;99.90;;;;;;5017994;28;20225;-65
2023/07/17 00:16:29;;;;;;;5.18;2.50;;;17.80;99.90;;;;;;5030733;28;20293;-65
2023/07/17 00:18:57;;;;;;;5.05;2.97;;;17.90;99.90;;;;;;5019809;28;20213;-65
2023/07/17 00:21:24;;;;;;;6.03;2.35;;;17.90;99.90;;;;;;5025813;28;20212;-65
2023/07/17 00:23:50;;;;;;;5.80;3.22;;;17.90;99.90;;;;;;4998819;28;20687;-65
2023/07/17 00:26:17;;;;;;;4.03;2.38;;;17.90;99.90;;;;;;5026793;28;20201;-65
2023/07/17 00:28:44;;;;;;;4.88;2.47;;;17.50;99.90;;;;;;5013597;28;20205;-65
2023/07/17 00:31:11;;;;;;;4.97;2.25;;;18.00;99.90;;;;;;5015941;28;20832;-65
2023/07/17 00:33:38;;;;;;;4.95;2.67;;;18.00;99.90;;;;;;5027251;28;20241;-65
2023/07/17 00:36:06;;;;;;;8.07;3.05;;;18.10;99.90;;;;;;5010602;28;20198;-65
2023/07/17 00:38:33;;;;;;;4.57;2.42;;;18.10;99.90;;;;;;5002647;28;20210;-65
2023/07/17 00:41:00;;;;;;;5.70;2.65;;;18.30;99.90;;;;;;5022090;28;20197;-65
2023/07/17 00:43:27;;;;;;;6.50;2.72;;;18.20;99.90;;;;;;5013706;28;20206;-65
2023/07/17 00:45:54;;;;;;;5.13;2.72;;;;;;;;;;5010786;28;20202;-65
2023/07/17 00:48:20;;;;;;;4.65;3.10;;;18.20;99.90;;;;;;5019833;28;20202;-65
2023/07/17 00:50:48;;;;;;;6.13;2.75;;;18.20;99.90;;;;;;5014312;28;20202;-65
2023/07/17 00:53:16;;;;;;;5.22;3.30;;;18.20;99.90;;;;;;4991744;28;21034;-65
2023/07/17 00:55:45;;;;;;;4.97;3.20;;;18.30;99.90;;;;;;5023469;28;25489;-64
2023/07/17 00:58:12;;;;;;;6.55;2.75;;;18.20;99.90;;;;;;5011113;28;20313;-65
2023/07/17 01:00:39;;;;;;;3.60;2.45;;;18.20;99.90;;;;;;5017051;28;20291;-65
2023/07/17 01:03:06;;;;;;;5.03;2.97;;;18.20;99.90;;;;;;5019383;28;20697;-65
2023/07/17 01:05:34;;;;;;;5.30;2.70;;;18.30;99.90;;;;;;5012759;28;20302;-64
2023/07/17 01:08:01;;;;;;;4.32;3.08;;;18.20;99.90;;;;;;4996949;28;20243;-65
2023/07/17 01:10:29;;;;;;;4.45;2.60;;;18.30;99.90;;;;;;5019255;28;20698;-64
2023/07/17 01:12:56;;;;;;;4.47;2.63;;;18.20;99.90;;;;;;5015908;28;20737;-65
2023/07/17 01:15:23;;;;;;;5.22;3.20;;;18.20;99.90;;;;;;5020196;28;20231;-65
2023/07/17 01:17:50;;;;;;;13.38;2.95;;;18.10;99.90;;;;;;5011360;28;20208;-65
2023/07/17 01:20:16;;;;;;;5.07;2.70;;;18.20;99.90;;;;;;5019725;28;20233;-65
2023/07/17 01:22:58;;;;;;;3.10;2.65;;;18.20;99.90;;;;;;5013614;28;20206;-65
2023/07/17 01:25:25;;;;;;;4.60;3.00;;;18.10;99.90;;;;;;4997659;28;20209;-65
2023/07/17 01:27:52;;;;;;;6.25;3.10;;;18.10;99.90;;;;;;5013508;28;20202;-65
2023/07/17 01:30:19;;;;;;;3.75;2.85;;;18.10;99.90;;;;;;5012941;28;20966;-65
2023/07/17 01:32:46;;;;;;;7.70;3.05;;;18.10;99.90;;;;;;5014759;28;20233;-64
2023/07/17 01:35:12;;;;;;;4.75;2.83;;;18.00;99.90;;;;;;5016895;28;20201;-65
2023/07/17 01:37:39;;;;;;;4.07;2.78;;;18.10;99.90;;;;;;5018748;28;20205;-65
2023/07/17 01:40:10;;;;;;;7.32;3.20;;;18.10;99.90;;;;;;4992761;28;20225;-65
2023/07/17 01:42:37;;;;;;;4.45;2.75;;;18.10;99.90;;;;;;5022330;28;21236;-65
2023/07/17 01:45:04;;;;;;;6.38;3.25;;;18.10;99.90;;;;;;5004624;28;20964;-65
2023/07/17 01:47:31;;;;;;;7.00;3.50;;;18.00;99.90;;;;;;5016987;28;20206;-65
2023/07/17 01:49:58;;;;;;;7.07;3.35;;;18.00;99.90;;;;;;5020195;28;20198;-65
2023/07/17 01:52:25;;;;;;;4.93;3.15;;;18.20;99.90;;;;;;5016337;28;20234;-65
2023/07/17 01:54:52;;;;;;;5.00;3.55;;;18.00;99.90;;;;;;5004457;28;20214;-65
2023/07/17 01:57:19;;;;;;;6.97;3.22;;;18.00;99.90;;;;;;5007376;28;20205;-65
2023/07/17 01:59:46;;;;;;;4.95;2.85;;;18.00;99.90;;;;;;5014970;28;20297;-65
2023/07/17 02:02:13;;;;;;;4.20;2.65;;;18.00;99.90;;;;;;5022596;28;20197;-65
2023/07/17 02:04:39;;;;;;;4.57;2.75;;;18.00;99.90;;;;;;5014068;28;20233;-65
2023/07/17 02:07:06;;;;;;;7.80;3.13;;;18.00;99.90;;;;;;5022579;28;20199;-65
2023/07/17 02:09:33;;;;;;;3.65;2.30;;;18.00;99.90;;;;;;5017300;28;20202;-65
2023/07/17 02:12:00;;;;;;;5.18;2.88;;;18.00;99.90;;;;;;4995959;28;20229;-65
2023/07/17 02:14:28;;;;;;;4.32;2.50;;;18.00;99.90;;;;;;5010712;28;20222;-65
2023/07/17 02:16:55;;;;;;;3.92;2.42;;;17.90;99.90;;;;;;5028176;28;20328;-65
2023/07/17 02:19:22;;;;;;;6.30;2.75;;;17.90;99.90;;;;;;5012352;28;20205;-65
2023/07/17 02:21:49;;;;;;;4.07;3.10;;;17.90;99.90;;;;;;5030334;28;20204;-65
2023/07/17 02:24:15;;;;;;;5.13;3.38;;;17.90;99.90;;;;;;5018407;28;20208;-65
2023/07/17 02:26:42;;;;;;;4.28;3.33;;;17.90;99.90;;;;;;5002221;28;20206;-65
2023/07/17 02:29:09;;;;;;;5.43;3.35;;;17.90;99.90;;;;;;5027436;28;20205;-65
2023/07/17 02:31:37;;;;;;;4.90;3.20;;;17.90;99.90;;;;;;5014904;28;20213;-65
2023/07/17 02:34:04;;;;;;;6.18;2.85;;;17.90;99.90;;;;;;5028985;28;20300;-65
2023/07/17 02:36:30;;;;;;;5.32;2.83;;;18.00;99.90;;;;;;5021024;28;20758;-65
2023/07/17 02:38:57;;;;;;;6.82;3.00;;;17.90;99.90;;;;;;5020574;28;20201;-65
2023/07/17 02:41:24;;;;;;;5.15;3.03;;;17.90;99.90;;;;;;4996897;28;20206;-65
2023/07/17 02:43:51;;;;;;;6.60;3.50;;;17.90;99.90;;;;;;5025439;28;20329;-65
2023/07/17 02:46:18;;;;;;;3.28;2.65;;;17.60;99.90;;;;;;5015365;28;20201;-65
2023/07/17 02:48:46;;;;;;;6.45;3.13;;;17.90;99.90;;;;;;5018427;28;20210;-65
2023/07/17 02:51:13;;;;;;;5.13;3.17;;;17.80;99.90;;;;;;5013480;28;20679;-65
2023/07/17 02:53:40;;;;;;;11.57;3.75;;;17.80;99.90;;;;;;5026673;28;20606;-65
2023/07/17 02:56:08;;;;;;;9.00;3.35;;;17.80;99.90;;;;;;5008336;28;20206;-65
2023/07/17 02:58:35;;;;;;;4.95;2.80;;;17.80;99.90;;;;;;5005466;28;20279;-65
2023/07/17 03:01:02;;;;;;;5.00;2.72;;;17.80;99.90;;;;;;5024597;28;20217;-65
2023/07/17 03:03:29;;;;;;;4.68;3.00;;;17.70;99.90;;;;;;5011744;28;20608;-65
2023/07/17 03:05:58;;;;;;;7.22;2.95;;;17.70;99.90;;;;;;5019321;28;20197;-65
2023/07/17 03:08:25;;;;;;;7.35;2.80;;;17.70;99.90;;;;;;5024081;28;20192;-65
2023/07/17 03:10:51;;;;;;;4.85;3.22;;;17.70;99.90;;;;;;5023688;28;20206;-65
2023/07/17 03:13:20;;;;;;;5.90;3.25;;;17.60;99.90;;;;;;4996438;28;20241;-65
2023/07/17 03:15:49;;;;;;;6.45;3.33;;;17.70;99.90;;;;;;5024393;28;20221;-65
2023/07/17 03:18:16;;;;;;;4.35;3.33;;;17.60;99.90;;;;;;5014138;28;20212;-65
2023/07/17 03:20:44;;;;;;;6.32;3.13;;;17.60;99.90;;;;;;5008639;28;20213;-65
2023/07/17 03:23:12;;;;;;;5.28;3.15;;;17.60;99.90;;;;;;5012598;28;20205;-65
2023/07/17 03:25:42;;;;;;;4.65;3.53;;;17.60;99.90;;;;;;5009034;28;21323;-65
2023/07/17 03:28:09;;;;;;;4.80;3.13;;;17.60;99.90;;;;;;5012414;28;20201;-65
2023/07/17 03:30:35;;;;;;;8.02;3.17;;;17.60;99.90;;;;;;5007856;28;20296;-65
2023/07/17 03:33:02;;;;;;;5.90;2.88;;;17.50;99.90;;;;;;5022255;28;20233;-65
2023/07/17 03:35:29;;;;;;;5.60;2.75;;;17.50;99.90;;;;;;5008905;28;20944;-65
2023/07/17 03:37:56;;;;;;;5.68;2.88;;;17.50;99.90;;;;;;5009342;28;20737;-65
2023/07/17 03:40:24;;;;;;;5.15;3.33;;;17.50;99.90;;;;;;5018736;28;20216;-65
2023/07/17 03:42:51;;;;;;;6.30;2.95;;;17.50;99.90;;;;;;4992501;28;20205;-66
2023/07/17 03:45:17;;;;;;;2.97;2.65;;;17.50;99.90;;;;;;4973588;28;20229;-65
2023/07/17 03:47:45;;;;;;;4.68;2.95;;;17.40;99.90;;;;;;5023003;22;20240;-86
2023/07/17 03:50:12;;;;;;;4.90;2.63;;;17.40;99.90;;;;;;5026987;28;20298;-88
2023/07/17 03:52:38;;;;;;;4.13;2.78;;;17.40;99.90;;;;;;5032804;28;20328;-89
2023/07/17 03:55:06;;;;;;;7.90;2.63;;;17.50;99.90;;;;;;5028876;28;20216;-89
2023/07/17 03:57:34;;;;;;;5.03;2.83;;;17.50;99.90;;;;;;5040124;28;20208;-88
2023/07/17 04:00:01;;;;;;;9.90;3.03;;;17.50;99.90;;;;;;5020563;28;20200;-88
2023/07/17 04:02:28;;;;;;;3.15;2.42;;;17.50;99.90;;;;;;5011222;28;20212;-87
2023/07/17 04:04:56;;;;;;;3.88;2.92;;;;;;;;;;5026356;28;20302;-88
2023/07/17 04:07:23;;;;;;;11.07;3.38;;;17.50;99.90;;;;;;5039493;28;20239;-88
2023/07/17 04:09:50;;;;;;;4.13;2.72;;;17.50;99.90;;;;;;5028438;28;20204;-90
2023/07/17 04:12:17;;;;;;;7.10;2.90;;;17.40;99.90;;;;;;5044879;28;20196;-89
2023/07/17 04:14:45;;;;;;;9.63;3.22;;;17.40;99.90;;;;;;5035710;28;20215;-88
2023/07/17 04:17:12;;;;;;;4.85;3.08;;;17.40;99.90;;;;;;5025114;28;20785;-89
2023/07/17 04:19:39;;;;;;;5.22;2.97;;;;;;;;;;5039938;28;20510;-86
2023/07/17 04:22:06;;;;;;;4.68;2.92;;;17.30;99.90;;;;;;5035455;28;20201;-88
2023/07/17 04:24:32;;;;;;;9.48;4.10;;;17.40;99.90;;;;;;5039164;28;20205;-89
2023/07/17 04:26:59;;;;;;;6.53;3.45;;;17.30;99.90;;;;;;5046168;28;20421;-88
2023/07/17 04:29:26;;;;;;;6.50;3.95;;;17.30;99.90;;;;;;5039879;28;20215;-89
2023/07/17 04:31:54;;;;;;;8.73;4.43;;;17.30;99.90;;;;;;5023115;28;20722;-89
2023/07/17 04:34:21;;;;;;;6.75;3.08;;;17.30;99.90;;;;;;5037345;28;20695;-87
2023/07/17 04:36:48;;;;;;;7.07;3.88;;;17.30;99.90;;;;;;5028658;28;20970;-88
2023/07/17 04:39:15;;;;;;;8.20;3.78;;;17.30;99.90;;;;;;5026745;28;20211;-88
2023/07/17 04:41:42;;;;;;;6.03;4.07;;;;;;;;;;5043033;28;20731;-88
2023/07/17 04:44:09;;;;;;;4.97;3.33;;;17.30;99.90;;;;;;5039551;28;20671;-88
2023/07/17 04:46:36;;;;;;;8.55;3.78;;;17.30;99.90;;;;;;5040551;28;20209;-89
2023/07/17 04:49:04;;;;;;;5.88;3.40;;;17.30;99.90;;;;;;5024926;28;20233;-88
2023/07/17 04:51:31;;;;;;;9.98;4.28;;;17.30;99.90;;;;;;5039839;28;20286;-88
2023/07/17 04:53:58;;;;;;;9.52;4.07;;;17.30;99.90;;;;;;5024899;28;20560;-88
2023/07/17 04:56:25;;;;;;;8.40;3.67;;;17.30;99.90;;;;;;5048020;28;20207;-88
2023/07/17 04:58:52;;;;;;;7.30;4.03;;;17.30;99.90;;;;;;5037756;28;20415;-85
2023/07/17 05:01:20;;;;;;;6.55;3.70;;;;;;;;;;5034934;28;20217;-88
2023/07/17 05:03:46;;;;;;;7.70;3.35;;;17.40;99.90;;;;;;5015280;28;25957;-90
2023/07/17 05:06:15;;;;;;;5.35;3.28;;;17.30;99.90;;;;;;5040367;28;20232;-88
2023/07/17 05:08:42;;;;;;;7.55;3.25;;;17.30;99.90;;;;;;5039444;28;20410;-88
2023/07/17 05:11:09;;;;;;;5.72;3.30;;;17.30;99.90;;;;;;5035678;28;20216;-88
2023/07/17 05:13:36;;;;;;;7.57;3.92;;;17.30;99.90;;;;;;5044695;28;20220;-88
2023/07/17 05:16:03;;;;;;;12.13;4.55;;;17.40;99.90;;;;;;5035064;28;20212;-88
2023/07/17 05:18:30;;;;;;;9.23;4.03;;;17.30;99.90;;;;;;5027381;28;20205;-89
2023/07/17 05:20:57;;;;;;;9.13;3.78;;;17.40;99.90;;;;;;5023733;28;20822;-88
2023/07/17 05:23:25;;;;;;;5.43;3.35;;;17.40;99.90;;;;;;5029952;28;20204;-89
2023/07/17 05:25:53;;;;;;;6.85;3.58;;;17.40;99.90;;;;;;5018813;28;20256;-88
2023/07/17 05:28:21;;;;;;;9.55;3.50;;;17.50;99.90;;;;;;5028876;28;20205;-88
2023/07/17 05:30:51;;;;;;;5.78;3.58;;;17.40;99.90;;;;;;5047440;28;20313;-88
2023/07/17 05:33:18;;;;;;;6.30;3.35;;;17.50;99.90;;;;;;5038560;28;20216;-87
2023/07/17 05:35:45;;;;;;;5.95;3.28;;;17.50;99.90;;;;;;5034234;28;27057;-89
2023/07/17 05:38:12;;;;;;;4.13;3.20;;;17.50;99.90;;;;;;5039128;28;20209;-89
2023/07/17 05:40:40;;;;;;;7.15;3.53;;;17.50;99.90;;;;;;5035434;28;20409;-89
2023/07/17 05:43:08;;;;;;;7.28;3.47;;;17.50;99.90;;;;;;5026721;28;20314;-85
2023/07/17 05:45:35;;;;;;;5.00;3.28;;;17.70;99.90;;;;;;5059704;28;20566;-88
2023/07/17 05:48:02;;;;;;;7.13;3.15;;;17.60;99.90;;;;;;5036749;28;20240;-89
2023/07/17 05:50:29;;;;;;;7.70;3.13;;;17.70;99.90;;;;;;5049705;28;20869;-88
2023/07/17 05:52:57;;;;;;;8.60;3.13;;;17.80;99.90;;;;;;5038262;28;20211;-88
2023/07/17 05:55:24;;;;;;;8.10;2.80;;;17.70;99.90;;;;;;5022606;28;20283;-88
2023/07/17 05:57:53;;;;;;;9.10;2.92;;;17.70;99.90;;;;;;5028500;28;20828;-88
2023/07/17 06:00:20;;;;;;;5.05;2.28;;;17.70;99.90;;;;;;5030530;28;20207;-88
2023/07/17 06:02:47;;;;;;;4.53;2.58;;;17.80;99.90;;;;;;5041289;28;20720;-88
2023/07/17 06:05:14;;;;;;;6.68;2.58;;;17.90;99.90;;;;;;5055612;28;20211;-88
2023/07/17 06:07:42;;;;;;;5.40;2.58;;;17.90;99.90;;;;;;5038147;28;20237;-89
2023/07/17 06:10:09;;;;;;;8.63;2.92;;;17.80;99.90;;;;;;5058353;28;20232;-88
2023/07/17 06:12:37;;;;;;;5.80;2.45;;;17.80;99.90;;;;;;5029802;28;20211;-86
2023/07/17 06:15:06;;;;;;;8.93;2.88;;;17.90;99.90;;;;;;5047900;28;20224;-86
2023/07/17 06:17:33;;;;;;;7.18;2.50;;;17.90;99.90;;;;;;5037849;28;20205;-89
2023/07/17 06:20:00;;;;;;;7.20;2.65;;;18.00;99.90;;;;;;5036105;28;20196;-89
2023/07/17 06:22:27;;;;;;;10.98;2.60;;;17.90;99.90;;;;;;5032989;28;20216;-89
2023/07/17 06:24:54;;;;;;;3.17;2.10;;;17.90;99.90;;;;;;5045858;28;20661;-88
2023/07/17 06:27:21;;;;;;;4.53;2.80;;;18.00;99.90;;;;;;5022371;28;20216;-88
2023/07/17 06:29:47;;;;;;;7.63;2.85;;;18.00;99.90;;;;;;5029609;28;20209;-88
2023/07/17 06:32:16;;;;;;;7.57;3.10;;;18.10;99.90;;;;;;5030103;28;20224;-90
2023/07/17 06:34:42;;;;;;;7.85;2.80;;;18.10;99.90;;;;;;5027337;28;20228;-88
2023/07/17 06:37:09;;;;;;;7.55;2.90;;;18.10;99.90;;;;;;5029057;28;20622;-87
2023/07/17 06:39:36;;;;;;;9.88;2.88;;;18.20;99.90;;;;;;5041905;28;20212;-88
2023/07/17 06:42:03;;;;;;;5.15;2.78;;;18.20;99.90;;;;;;5018008;28;20209;-87
2023/07/17 06:44:30;;;;;;;4.65;2.83;;;18.20;99.90;;;;;;5035162;28;20201;-88
2023/07/17 06:46:57;;;;;;;5.78;3.15;;;18.20;99.90;;;;;;5015513;28;20981;-90
2023/07/17 06:49:25;;;;;;;11.27;2.45;;;18.20;99.90;;;;;;5044248;28;20240;-87
2023/07/17 06:51:52;;;;;;;14.15;3.10;;;;;;;;;;5038791;28;20290;-91
2023/07/17 06:54:19;;;;;;;10.50;3.60;;;18.30;99.90;;;;;;5034111;28;20358;-89
2023/07/17 06:56:46;;;;;;;6.13;2.83;;;18.30;99.90;;;;;;5035790;28;20211;-89
2023/07/17 06:59:13;;;;;;;5.03;2.45;;;18.30;99.90;;;;;;5038925;28;20286;-88
2023/07/17 07:01:40;;;;;;;4.72;2.60;;;18.30;99.90;;;;;;5045950;28;20250;-88
2023/07/17 07:04:07;;;;;;;5.47;2.33;;;18.30;99.90;;;;;;5044228;28;20216;-87
2023/07/17 07:06:35;;;;;;;10.40;3.25;;;18.40;99.90;;;;;;5023491;28;20200;-90
2023/07/17 07:09:02;;;;;;;5.88;2.38;;;18.30;99.90;;;;;;5032788;28;20398;-91
2023/07/17 07:11:29;;;;;;;10.98;2.45;;;18.40;99.90;;;;;;5047719;28;20205;-88
2023/07/17 07:13:55;;;;;;;9.07;2.88;;;18.40;99.90;;;;;;5027224;28;20848;-90
2023/07/17 07:16:22;;;;;;;13.60;3.60;;;18.50;99.90;;;;;;5043279;28;20302;-89
2023/07/17 07:18:49;;;;;;;7.63;2.58;;;18.50;99.90;;;;;;5044753;28;20580;-89
2023/07/17 07:21:16;;;;;;;7.25;2.42;;;18.50;99.90;;;;;;5023456;28;20219;-88
2023/07/17 07:23:44;;;;;;;7.28;2.92;;;18.60;99.90;;;;;;5045699;28;20621;-89
2023/07/17 07:26:11;;;;;;;6.07;2.83;;;18.60;99.90;;;;;;5014869;28;20210;-88
2023/07/17 07:28:39;;;;;;;10.15;2.90;;;18.50;99.90;;;;;;5041986;28;20201;-90
2023/07/17 07:31:06;;;;;;;4.93;2.40;;;18.50;99.90;;;;;;5032444;28;20393;-88
2023/07/17 07:33:33;;;;;;;9.77;2.70;;;18.50;99.90;;;;;;5044543;28;20205;-88
2023/07/17 07:36:01;;;;;;;9.15;2.83;;;18.60;99.90;;;;;;5043147;28;20203;-89
2023/07/17 07:38:28;;;;;;;8.13;3.28;;;18.60;99.90;;;;;;5035506;28;20787;-91
2023/07/17 07:40:56;;;;;;;8.77;2.97;;;;;;;;;;5028336;28;20200;-89
2023/07/17 07:43:23;;;;;;;9.02;3.25;;;18.80;99.90;;;;;;5025147;28;20205;-90
2023/07/17 07:45:50;;;;;;;8.35;2.80;;;18.80;99.90;;;;;;5019883;28;20404;-90
2023/07/17 07:48:17;;;;;;;9.00;2.85;;;18.80;99.90;;;;;;5032707;28;20339;-90
2023/07/17 07:50:44;;;;;;;5.18;2.65;;;18.90;99.90;;;;;;5009434;28;20457;-89
2023/07/17 07:53:10;;;;;;;5.53;2.63;;;18.90;99.90;;;;;;5038103;28;20211;-88
2023/07/17 07:55:38;;;;;;;10.98;2.80;;;18.90;99.90;;;;;;5016712;28;20229;-88
2023/07/17 07:58:06;;;;;;;6.40;2.88;;;19.00;99.90;;;;;;5035619;28;20215;-89
2023/07/17 08:00:33;;;;;;;9.57;2.70;;;19.00;99.90;;;;;;5026257;28;20394;-90
2023/07/17 08:03:00;;;;;;;5.18;2.58;;;19.00;99.90;;;;;;5030020;28;20205;-88
2023/07/17 08:05:27;;;;;;;9.02;3.67;;;19.00;99.90;;;;;;5021920;28;20683;-89
2023/07/17 08:07:54;;;;;;;9.48;2.90;;;19.00;99.90;;;;;;5032647;28;20212;-89
2023/07/17 08:10:21;;;;;;;7.30;3.03;;;19.00;99.90;;;;;;5023703;28;20210;-89
2023/07/17 08:12:47;;;;;;;8.40;2.85;;;18.90;99.90;;;;;;5030295;28;20640;-89
2023/07/17 08:15:16;;;;;;;5.15;2.75;;;18.90;99.90;;;;;;5024671;28;20221;-90
2023/07/17 08:17:43;;;;;;;10.00;2.78;;;18.90;99.90;;;;;;5032488;28;20201;-91
2023/07/17 08:20:10;;;;;;;8.85;3.30;;;19.00;99.90;;;;;;5026391;28;20508;-90
2023/07/17 08:22:37;;;;;;;7.40;3.00;;;19.00;99.90;;;;;;5034598;28;20322;-88
2023/07/17 08:25:05;;;;;;;9.18;3.13;;;18.90;99.90;;;;;;5027757;28;20311;-89
2023/07/17 08:27:31;;;;;;;6.05;3.10;;;18.90;99.90;;;;;;5014554;28;20811;-89
2023/07/17 08:29:58;;;;;;;11.95;4.93;;;18.90;99.90;;;;;;5026538;28;20213;-89
2023/07/17 08:32:26;;;;;;;8.07;2.80;;;19.00;99.90;;;;;;5033760;28;20219;-91
2023/07/17 08:34:53;;;;;;;9.77;3.25;;;19.10;99.90;;;;;;5031695;28;20235;-90
2023/07/17 08:37:20;;;;;;;6.30;2.35;;;19.10;99.90;;;;;;5032852;28;20203;-89
2023/07/17 08:39:48;;;;;;;8.48;3.60;;;19.10;99.90;;;;;;5033844;28;20300;-89
2023/07/17 08:42:14;;;;;;;4.97;3.03;;;19.10;99.90;;;;;;5010554;28;20425;-88
2023/07/17 08:44:41;;;;;;;5.55;2.60;;;19.10;99.90;;;;;;5040910;28;20578;-89
2023/07/17 08:47:09;;;;;;;6.13;2.67;;;19.20;99.90;;;;;;5016158;28;20212;-89
2023/07/17 08:49:39;;;;;;;5.30;2.53;;;19.20;99.90;;;;;;5049550;28;20240;-89
2023/07/17 08:52:08;;;;;;;4.85;2.67;;;19.30;99.90;;;;;;5031015;28;20243;-88
2023/07/17 08:54:35;;;;;;;7.70;2.60;;;19.40;99.90;;;;;;5026087;28;20217;-89
2023/07/17 08:57:04;;;;;;;5.60;2.83;;;19.50;99.90;;;;;;5020428;28;20216;-91
2023/07/17 08:59:32;;;;;;;11.77;3.15;;;19.50;99.90;;;;;;5029438;28;20236;-90
2023/07/17 09:02:00;;;;;;;10.93;3.00;;;19.40;99.90;;;;;;5009448;28;20212;-90
2023/07/17 09:04:28;;;;;;;4.70;2.60;;;19.50;99.90;;;;;;5036105;28;20227;-91
2023/07/17 09:06:57;;;;;;;7.65;2.85;;;19.60;99.90;;;;;;5041511;28;20635;-87
2023/07/17 09:09:24;;;;;;;13.65;2.83;;;19.80;99.90;;;;;;5031044;28;21435;-89
2023/07/17 09:12:07;;;;;;;6.75;3.22;;;19.60;99.90;;;;;;5026012;28;20252;-90
2023/07/17 09:14:34;;;;;;;6.03;2.83;;;19.60;99.90;;;;;;5042411;28;20259;-90
2023/07/17 09:17:03;;;;;;;8.13;2.85;;;19.40;99.90;;;;;;5037983;28;20220;-91
2023/07/17 09:19:31;;;;;;;6.50;2.85;;;19.40;99.90;;;;;;5042056;28;20237;-90
2023/07/17 09:22:02;;;;;;;6.80;2.95;;;19.40;99.90;;;;;;5035541;28;20197;-89
2023/07/17 09:24:29;;;;;;;4.82;2.75;;;19.40;99.90;;;;;;5021016;28;20294;-90
2023/07/17 09:26:57;;;;;;;8.32;3.70;;;19.40;99.90;;;;;;5031074;28;20845;-90
2023/07/17 09:29:24;;;;;;;10.48;3.17;;;;;;;;;;5021908;28;20706;-92
2023/07/17 09:31:52;;;;;;;5.20;3.63;;;19.30;99.90;;;;;;5025926;28;20856;-89
2023/07/17 09:34:19;;;;;;;7.57;3.10;;;19.30;99.90;;;;;;5037627;28;20243;-91
2023/07/17 09:36:50;;;;;;;7.32;3.25;;;19.20;99.90;;;;;;5049032;28;20432;-92
2023/07/17 09:39:19;;;;;;;6.57;2.95;;;19.20;99.90;;;;;;5030202;28;20462;-91
2023/07/17 09:41:45;;;;;;;9.13;2.90;;;19.20;99.90;;;;;;5031733;28;20208;-89
2023/07/17 09:44:18;;;;;;;9.52;3.10;;;19.20;99.90;;;;;;5025260;28;20211;-89
2023/07/17 09:46:46;;;;;;;5.43;2.67;;;19.20;99.90;;;;;;5025819;28;20200;-89
2023/07/17 09:49:13;;;;;;;6.00;3.25;;;19.10;99.90;;;;;;5039772;28;20237;-89
2023/07/17 09:51:40;;;;;;;6.63;2.90;;;18.90;99.90;;;;;;5021939;28;20429;-92
2023/07/17 09:54:08;;;;;;;7.00;3.25;;;18.90;99.90;;;;;;5030694;28;20223;-88
2023/07/17 09:56:37;;;;;;;6.60;3.25;;;18.90;99.90;;;;;;5033352;28;20209;-89
2023/07/17 09:59:13;;;;;;;7.45;3.13;;;18.90;99.90;;;;;;5018857;28;20900;-89
2023/07/17 10:01:44;;;;;;;6.22;3.05;;;19.00;99.90;;;;;;5032945;28;20214;-92
2023/07/17 10:04:14;;;;;;;6.97;3.20;;;19.20;99.90;;;;;;5016758;28;20204;-89
2023/07/17 10:06:43;;;;;;;11.38;3.10;;;19.80;99.90;;;;;;5014172;28;20381;-87
2023/07/17 10:09:14;;;;;;;10.23;3.47;;;19.80;99.90;;;;;;5010774;28;20216;-89
2023/07/17 10:11:42;;;;;;;9.13;3.00;;;20.10;99.90;;;;;;5002714;28;20217;-90
2023/07/17 10:14:10;;;;;;;8.27;3.35;;;20.40;99.90;;;;;;5011763;28;20202;-90
2023/07/17 10:16:37;;;;;;;9.45;2.83;;;20.40;99.90;;;;;;5024179;28;20208;-92
2023/07/17 10:19:04;;;;;;;6.20;2.90;;;20.40;99.90;;;;;;5032438;28;20603;-87
2023/07/17 10:21:31;;;;;;;5.47;2.88;;;20.30;99.90;;;;;;5016697;28;20208;-89
2023/07/17 10:24:02;;;;;;;8.07;3.50;;;20.30;99.90;;;;;;5022361;28;20201;-90
2023/07/17 10:26:30;;;;;;;9.05;2.83;;;20.20;99.90;;;;;;5015389;28;20259;-89
2023/07/17 10:29:02;;;;;;;4.30;1.80;;;20.00;99.90;;;;;;5036533;28;20212;-88
2023/07/17 10:31:32;;;;;;;1.00;1.00;;;18.40;99.90;;;;;;4998609;28;20743;-90
2023/07/17 10:34:03;;;;;;;1.08;0.95;;;18.40;99.90;;;;;;5047312;28;20316;-91
2023/07/17 10:36:40;;;;;;;3.05;1.00;;;17.50;99.90;;;;;;5014892;28;20400;-93
2023/07/17 10:39:08;;;;;;;1.40;0.95;;;17.20;99.90;;;;;;5047145;28;20211;-91
2023/07/17 10:41:37;;;;;;;3.47;1.40;;;16.90;99.90;;;;;;5032166;28;20550;-90
2023/07/17 10:44:07;;;;;;;2.95;1.38;;;16.80;99.90;;;;;;5044545;28;20205;-89
2023/07/17 10:46:36;;;;;;;3.63;1.27;;;17.30;99.90;;;;;;5026181;28;20197;-92
2023/07/17 10:49:07;;;;;;;5.05;1.33;;;16.60;99.90;;;;;;5035474;28;20272;-91
2023/07/17 10:51:34;;;;;;;5.00;1.60;;;16.80;99.90;;;;;;5029573;28;20329;-92
2023/07/17 10:54:01;;;;;;;3.97;1.40;;;17.00;99.90;;;;;;5033578;28;20224;-91
2023/07/17 10:56:29;;;;;;;2.97;1.75;;;17.00;99.90;;;;;;5027830;28;20307;-89
2023/07/17 10:58:56;;;;;;;1.40;1.15;;;17.20;99.90;;;;;;5048539;28;20201;-92
2023/07/17 11:01:24;;;;;;;2.00;1.40;;;17.40;99.90;;;;;;5022532;28;20207;-93
2023/07/17 11:03:53;;;;;;;4.53;1.40;;;17.70;99.90;;;;;;5031405;28;20299;-90
2023/07/17 11:06:21;;;;;;;3.88;1.60;;;17.70;99.90;;;;;;5027351;28;20428;-92
2023/07/17 11:08:49;;;;;;;3.70;1.90;;;17.70;99.90;;;;;;5024271;28;20293;-94
2023/07/17 11:11:16;;;;;;;6.05;2.13;;;17.50;99.90;;;;;;5016088;28;20217;-88
2023/07/17 11:13:45;;;;;;;3.72;2.05;;;17.60;99.90;;;;;;5027682;28;20415;-91
2023/07/17 11:16:12;;;;;;;7.47;2.58;;;17.60;99.90;;;;;;5010126;28;20303;-91
2023/07/17 11:18:47;;;;;;;3.63;2.35;;;17.40;99.90;;;;;;5034352;28;20339;-93
2023/07/17 11:21:15;;;;;;;3.55;2.28;;;17.30;99.90;;;;;;5043953;28;20205;-91
2023/07/17 11:23:47;;;;;;;6.03;2.70;;;17.10;99.90;;;;;;5026079;28;20209;-91
2023/07/17 11:26:16;;;;;;;5.20;2.45;;;17.20;99.90;;;;;;5021187;28;22802;-91
2023/07/17 11:28:42;;;;;;;3.72;2.15;;;17.10;99.90;;;;;;5035603;28;20641;-91
2023/07/17 11:31:18;;;;;;;3.35;2.10;;;17.10;99.90;;;;;;5010994;28;20337;-95
2023/07/17 11:33:55;;;;;;;4.00;2.05;;;17.10;99.90;;;;;;5043066;28;20612;-89
2023/07/17 11:36:22;;;;;;;3.50;2.40;;;17.20;99.90;;;;;;5039084;28;20226;-92
2023/07/17 11:38:49;;;;;;;2.50;2.30;;;17.20;99.90;;;;;;5024830;28;20684;-93
2023/07/17 11:41:16;;;;;;;7.82;2.67;;;17.20;99.90;;;;;;5034075;28;20408;-90
2023/07/17 11:43:43;;;;;;;9.55;2.92;;;17.40;99.90;;;;;;5047200;28;20209;-92
2023/07/17 11:46:11;;;;;;;2.90;2.10;;;17.50;99.90;;;;;;5016417;28;20440;-91
2023/07/17 11:48:42;;;;;;;4.18;2.20;;;17.50;99.90;;;;;;5034559;28;20233;-93
2023/07/17 11:51:11;;;;;;;7.72;2.38;;;17.60;99.90;;;;;;5038622;28;20219;-89
2023/07/17 11:53:39;;;;;;;5.43;2.58;;;17.70;99.90;;;;;;5023410;28;20684;-92
2023/07/17 11:56:08;;;;;;;3.53;2.45;;;17.80;99.90;;;;;;5039962;28;20676;-92
2023/07/17 11:58:35;;;;;;;3.08;2.00;;;17.90;99.90;;;;;;5024607;28;20737;-92
2023/07/17 12:01:02;;;;;;;4.70;2.00;;;18.00;99.90;;;;;;5021175;28;20258;-93
2023/07/17 12:03:29;;;;;;;4.32;2.50;;;18.00;99.90;;;;;;5031332;28;20216;-92
2023/07/17 12:05:56;;;;;;;5.10;2.42;;;18.10;99.90;;;;;;5020809;28;20204;-94
2023/07/17 12:08:24;;;;;;;4.82;2.10;;;18.10;99.90;;;;;;5032304;28;20778;-91
2023/07/17 12:10:51;;;;;;;5.07;2.42;;;18.10;99.90;;;;;;5031690;28;20231;-93
2023/07/17 12:13:18;;;;;;;5.20;2.40;;;18.20;99.90;;;;;;5035106;28;20822;-95
2023/07/17 12:15:45;;;;;;;5.03;2.55;;;18.30;99.90;;;;;;5026559;28;20555;-90
2023/07/17 12:18:12;;;;;;;5.00;2.53;;;18.20;99.90;;;;;;5033814;28;20212;-91
2023/07/17 12:20:38;;;;;;;5.07;2.65;;;18.40;99.90;;;;;;5040536;28;20634;-91
2023/07/17 12:23:06;;;;;;;4.28;2.47;;;18.40;99.90;;;;;;5025456;28;20232;-91
2023/07/17 12:25:35;;;;;;;7.45;2.90;;;18.40;99.90;;;;;;5046241;28;20420;-93
2023/07/17 12:28:02;;;;;;;3.60;2.20;;;18.40;99.90;;;;;;5018976;28;20478;-91
2023/07/17 12:30:30;;;;;;;6.90;3.17;;;18.40;99.90;;;;;;5044884;28;20283;-89
2023/07/17 12:32:59;;;;;;;9.15;2.75;;;18.40;99.90;;;;;;5021283;28;20204;-89
2023/07/17 12:35:26;;;;;;;6.38;2.55;;;18.50;99.90;;;;;;5046868;28;20228;-93
2023/07/17 12:37:53;;;;;;;4.90;2.97;;;18.50;99.90;;;;;;5009969;28;20473;-90
2023/07/17 12:40:20;;;;;;;4.03;2.22;;;18.50;99.90;;;;;;5045296;28;20205;-92
2023/07/17 12:42:48;;;;;;;3.90;2.83;;;18.70;99.90;;;;;;5028786;28;20213;-91
2023/07/17 12:45:15;;;;;;;4.30;2.33;;;18.70;99.90;;;;;;5057021;28;20208;-91
2023/07/17 12:47:42;;;;;;;4.65;2.90;;;18.90;99.90;;;;;;5032775;28;20426;-89
2023/07/17 12:50:10;;;;;;;4.75;2.40;;;19.10;99.90;;;;;;5039057;28;20582;-90